sensor_id;sensor_type;location;lat;lon;timestamp;P1;durP1;ratioP1;P2;durP2;ratioP2
51459;SDS011;37534;39.772;2.718;2023-01-09T00:02:09;1.20;;;1.10;;
51459;SDS011;37534;39.772;2.718;2023-01-09T00:04:35;0.82;;;0.80;;
51459;SDS011;37534;39.772;2.718;2023-01-09T00:07:00;2.72;;;1.92;;
51459;SDS011;37534;39.772;2.718;2023-01-09T00:09:26;5.03;;;1.95;;
51459;SDS011;37534;39.772;2.718;2023-01-09T00:11:52;0.60;;;0.60;;
51459;SDS011;37534;39.772;2.718;2023-01-09T00:14:19;3.38;;;1.77;;
51459;SDS011;37534;39.772;2.718;2023-01-09T00:16:46;4.13;;;1.77;;
51459;SDS011;37534;39.772;2.718;2023-01-09T00:19:12;7.10;;;2.35;;
51459;SDS011;37534;39.772;2.718;2023-01-09T00:21:38;18.02;;;3.85;;
51459;SDS011;37534;39.772;2.718;2023-01-09T00:24:04;24.63;;;5.90;;
51459;SDS011;37534;39.772;2.718;2023-01-09T00:26:30;21.20;;;5.95;;
51459;SDS011;37534;39.772;2.718;2023-01-09T00:28:55;8.07;;;3.15;;
51459;SDS011;37534;39.772;2.718;2023-01-09T00:31:21;12.38;;;3.83;;
51459;SDS011;37534;39.772;2.718;2023-01-09T00:36:22;8.85;;;4.15;;
51459;SDS011;37534;39.772;2.718;2023-01-09T00:38:48;13.32;;;4.28;;
51459;SDS011;37534;39.772;2.718;2023-01-09T00:41:15;8.98;;;3.55;;
51459;SDS011;37534;39.772;2.718;2023-01-09T00:43:50;14.05;;;4.13;;
51459;SDS011;37534;39.772;2.718;2023-01-09T00:46:19;7.03;;;3.30;;
51459;SDS011;37534;39.772;2.718;2023-01-09T00:48:49;3.92;;;2.42;;
51459;SDS011;37534;39.772;2.718;2023-01-09T00:51:15;9.57;;;2.45;;
51459;SDS011;37534;39.772;2.718;2023-01-09T00:53:43;8.65;;;3.50;;
51459;SDS011;37534;39.772;2.718;2023-01-09T00:56:15;15.65;;;3.30;;
51459;SDS011;37534;39.772;2.718;2023-01-09T00:58:43;10.07;;;2.33;;
51459;SDS011;37534;39.772;2.718;2023-01-09T01:01:09;11.93;;;2.67;;
51459;SDS011;37534;39.772;2.718;2023-01-09T01:03:36;5.75;;;2.25;;
51459;SDS011;37534;39.772;2.718;2023-01-09T01:06:01;7.95;;;3.00;;
51459;SDS011;37534;39.772;2.718;2023-01-09T01:08:46;14.52;;;3.97;;
51459;SDS011;37534;39.772;2.718;2023-01-09T01:11:11;14.18;;;2.95;;
51459;SDS011;37534;39.772;2.718;2023-01-09T01:13:38;10.40;;;2.95;;
51459;SDS011;37534;39.772;2.718;2023-01-09T01:16:06;6.60;;;2.72;;
51459;SDS011;37534;39.772;2.718;2023-01-09T01:18:32;10.38;;;3.33;;
51459;SDS011;37534;39.772;2.718;2023-01-09T01:20:58;9.57;;;3.28;;
51459;SDS011;37534;39.772;2.718;2023-01-09T01:23:24;8.38;;;2.60;;
51459;SDS011;37534;39.772;2.718;2023-01-09T01:25:49;5.15;;;2.55;;
51459;SDS011;37534;39.772;2.718;2023-01-09T01:28:15;7.95;;;2.55;;
51459;SDS011;37534;39.772;2.718;2023-01-09T01:30:41;7.93;;;2.10;;
51459;SDS011;37534;39.772;2.718;2023-01-09T01:33:08;12.30;;;2.92;;
51459;SDS011;37534;39.772;2.718;2023-01-09T01:35:34;9.55;;;2.83;;
51459;SDS011;37534;39.772;2.718;2023-01-09T01:38:00;5.72;;;2.55;;
51459;SDS011;37534;39.772;2.718;2023-01-09T01:40:26;5.22;;;1.95;;
51459;SDS011;37534;39.772;2.718;2023-01-09T01:42:53;6.43;;;2.08;;
51459;SDS011;37534;39.772;2.718;2023-01-09T01:45:23;7.72;;;2.53;;
51459;SDS011;37534;39.772;2.718;2023-01-09T01:50:42;8.13;;;2.15;;
51459;SDS011;37534;39.772;2.718;2023-01-09T01:53:13;12.05;;;2.40;;
51459;SDS011;37534;39.772;2.718;2023-01-09T01:55:47;2.75;;;1.77;;
51459;SDS011;37534;39.772;2.718;2023-01-09T01:58:45;4.45;;;1.15;;
51459;SDS011;37534;39.772;2.718;2023-01-09T02:01:14;5.25;;;1.13;;
51459;SDS011;37534;39.772;2.718;2023-01-09T02:03:40;1.65;;;1.23;;
51459;SDS011;37534;39.772;2.718;2023-01-09T02:06:07;7.47;;;1.35;;
51459;SDS011;37534;39.772;2.718;2023-01-09T02:08:33;5.53;;;2.05;;
51459;SDS011;37534;39.772;2.718;2023-01-09T02:11:00;13.20;;;2.08;;
51459;SDS011;37534;39.772;2.718;2023-01-09T02:13:27;7.53;;;1.77;;
51459;SDS011;37534;39.772;2.718;2023-01-09T02:21:14;8.50;;;2.08;;
51459;SDS011;37534;39.772;2.718;2023-01-09T02:24:16;3.95;;;1.50;;
51459;SDS011;37534;39.772;2.718;2023-01-09T02:27:03;3.53;;;1.45;;
51459;SDS011;37534;39.772;2.718;2023-01-09T02:29:57;7.13;;;1.43;;
51459;SDS011;37534;39.772;2.718;2023-01-09T02:32:42;10.98;;;1.92;;
51459;SDS011;37534;39.772;2.718;2023-01-09T02:35:35;3.10;;;1.30;;
51459;SDS011;37534;39.772;2.718;2023-01-09T02:38:09;4.05;;;1.02;;
51459;SDS011;37534;39.772;2.718;2023-01-09T02:43:38;6.63;;;1.08;;
51459;SDS011;37534;39.772;2.718;2023-01-09T02:46:05;5.10;;;0.77;;
51459;SDS011;37534;39.772;2.718;2023-01-09T02:48:30;1.35;;;0.45;;
51459;SDS011;37534;39.772;2.718;2023-01-09T02:51:13;8.50;;;1.00;;
51459;SDS011;37534;39.772;2.718;2023-01-09T03:02:15;3.67;;;1.20;;
51459;SDS011;37534;39.772;2.718;2023-01-09T03:05:07;2.35;;;0.77;;
51459;SDS011;37534;39.772;2.718;2023-01-09T03:07:48;1.90;;;1.08;;
51459;SDS011;37534;39.772;2.718;2023-01-09T03:10:25;2.38;;;0.88;;
51459;SDS011;37534;39.772;2.718;2023-01-09T03:13:10;6.47;;;1.30;;
51459;SDS011;37534;39.772;2.718;2023-01-09T03:15:40;7.15;;;2.00;;
51459;SDS011;37534;39.772;2.718;2023-01-09T03:18:09;6.20;;;2.33;;
51459;SDS011;37534;39.772;2.718;2023-01-09T03:20:38;9.23;;;2.50;;
51459;SDS011;37534;39.772;2.718;2023-01-09T03:23:05;6.18;;;1.70;;
51459;SDS011;37534;39.772;2.718;2023-01-09T03:25:32;4.05;;;1.90;;
51459;SDS011;37534;39.772;2.718;2023-01-09T03:28:02;7.72;;;2.17;;
51459;SDS011;37534;39.772;2.718;2023-01-09T03:30:30;8.20;;;2.20;;
51459;SDS011;37534;39.772;2.718;2023-01-09T03:32:57;5.65;;;1.98;;
51459;SDS011;37534;39.772;2.718;2023-01-09T03:35:23;3.10;;;1.33;;
51459;SDS011;37534;39.772;2.718;2023-01-09T03:37:49;10.57;;;2.05;;
51459;SDS011;37534;39.772;2.718;2023-01-09T03:40:16;10.48;;;3.03;;
51459;SDS011;37534;39.772;2.718;2023-01-09T03:42:42;8.77;;;2.38;;
51459;SDS011;37534;39.772;2.718;2023-01-09T03:45:08;17.33;;;4.18;;
51459;SDS011;37534;39.772;2.718;2023-01-09T03:47:34;9.13;;;3.25;;
51459;SDS011;37534;39.772;2.718;2023-01-09T03:49:59;14.13;;;3.90;;
51459;SDS011;37534;39.772;2.718;2023-01-09T03:52:25;7.55;;;2.40;;
51459;SDS011;37534;39.772;2.718;2023-01-09T03:54:50;8.57;;;2.80;;
51459;SDS011;37534;39.772;2.718;2023-01-09T03:57:16;17.48;;;3.45;;
51459;SDS011;37534;39.772;2.718;2023-01-09T03:59:42;9.32;;;3.28;;
51459;SDS011;37534;39.772;2.718;2023-01-09T04:02:07;4.90;;;1.85;;
51459;SDS011;37534;39.772;2.718;2023-01-09T04:04:33;7.20;;;2.35;;
51459;SDS011;37534;39.772;2.718;2023-01-09T04:06:58;13.63;;;3.17;;
51459;SDS011;37534;39.772;2.718;2023-01-09T04:09:24;10.38;;;2.97;;
51459;SDS011;37534;39.772;2.718;2023-01-09T04:11:50;11.75;;;3.55;;
51459;SDS011;37534;39.772;2.718;2023-01-09T04:14:15;13.85;;;3.22;;
51459;SDS011;37534;39.772;2.718;2023-01-09T04:16:41;14.07;;;4.20;;
51459;SDS011;37534;39.772;2.718;2023-01-09T04:19:07;12.80;;;3.55;;
51459;SDS011;37534;39.772;2.718;2023-01-09T04:21:32;11.40;;;3.05;;
51459;SDS011;37534;39.772;2.718;2023-01-09T04:23:58;18.60;;;4.30;;
51459;SDS011;37534;39.772;2.718;2023-01-09T04:26:24;10.48;;;3.25;;
51459;SDS011;37534;39.772;2.718;2023-01-09T04:28:49;16.02;;;3.95;;
51459;SDS011;37534;39.772;2.718;2023-01-09T04:31:15;17.60;;;4.45;;
51459;SDS011;37534;39.772;2.718;2023-01-09T04:33:41;22.45;;;3.30;;
51459;SDS011;37534;39.772;2.718;2023-01-09T04:36:06;10.80;;;3.17;;
51459;SDS011;37534;39.772;2.718;2023-01-09T04:38:32;9.32;;;2.80;;
51459;SDS011;37534;39.772;2.718;2023-01-09T04:40:58;10.10;;;2.88;;
51459;SDS011;37534;39.772;2.718;2023-01-09T04:43:24;12.60;;;3.30;;
51459;SDS011;37534;39.772;2.718;2023-01-09T04:45:49;10.52;;;2.85;;
51459;SDS011;37534;39.772;2.718;2023-01-09T04:48:15;14.02;;;3.25;;
51459;SDS011;37534;39.772;2.718;2023-01-09T04:50:41;9.70;;;3.00;;
51459;SDS011;37534;39.772;2.718;2023-01-09T04:53:06;8.73;;;3.15;;
51459;SDS011;37534;39.772;2.718;2023-01-09T04:55:32;9.75;;;4.00;;
51459;SDS011;37534;39.772;2.718;2023-01-09T04:57:58;9.13;;;3.22;;
51459;SDS011;37534;39.772;2.718;2023-01-09T05:00:24;16.00;;;3.63;;
51459;SDS011;37534;39.772;2.718;2023-01-09T05:02:49;14.48;;;4.43;;
51459;SDS011;37534;39.772;2.718;2023-01-09T05:05:15;18.92;;;4.35;;
51459;SDS011;37534;39.772;2.718;2023-01-09T05:07:41;13.85;;;3.83;;
51459;SDS011;37534;39.772;2.718;2023-01-09T05:10:07;10.30;;;3.63;;
51459;SDS011;37534;39.772;2.718;2023-01-09T05:12:34;9.20;;;2.97;;
51459;SDS011;37534;39.772;2.718;2023-01-09T05:15:00;13.70;;;3.55;;
51459;SDS011;37534;39.772;2.718;2023-01-09T05:17:27;14.73;;;4.28;;
51459;SDS011;37534;39.772;2.718;2023-01-09T05:19:53;18.45;;;3.47;;
51459;SDS011;37534;39.772;2.718;2023-01-09T05:22:19;13.88;;;4.07;;
51459;SDS011;37534;39.772;2.718;2023-01-09T05:24:44;13.43;;;3.88;;
51459;SDS011;37534;39.772;2.718;2023-01-09T05:27:10;14.10;;;3.42;;
51459;SDS011;37534;39.772;2.718;2023-01-09T05:29:36;9.32;;;3.10;;
51459;SDS011;37534;39.772;2.718;2023-01-09T05:32:01;19.90;;;3.58;;
51459;SDS011;37534;39.772;2.718;2023-01-09T05:34:27;16.10;;;4.00;;
51459;SDS011;37534;39.772;2.718;2023-01-09T05:36:53;21.70;;;5.35;;
51459;SDS011;37534;39.772;2.718;2023-01-09T05:39:18;31.02;;;4.72;;
51459;SDS011;37534;39.772;2.718;2023-01-09T05:41:44;7.60;;;3.22;;
51459;SDS011;37534;39.772;2.718;2023-01-09T05:44:10;10.25;;;3.78;;
51459;SDS011;37534;39.772;2.718;2023-01-09T05:46:35;14.90;;;3.67;;
51459;SDS011;37534;39.772;2.718;2023-01-09T05:49:01;20.92;;;4.45;;
51459;SDS011;37534;39.772;2.718;2023-01-09T05:51:27;16.63;;;4.00;;
51459;SDS011;37534;39.772;2.718;2023-01-09T05:53:54;12.02;;;3.22;;
51459;SDS011;37534;39.772;2.718;2023-01-09T05:56:20;18.98;;;5.35;;
51459;SDS011;37534;39.772;2.718;2023-01-09T05:58:46;12.88;;;4.13;;
51459;SDS011;37534;39.772;2.718;2023-01-09T06:01:11;9.55;;;3.28;;
51459;SDS011;37534;39.772;2.718;2023-01-09T06:03:37;13.07;;;4.57;;
51459;SDS011;37534;39.772;2.718;2023-01-09T06:06:02;12.60;;;4.07;;
51459;SDS011;37534;39.772;2.718;2023-01-09T06:08:28;16.73;;;4.15;;
51459;SDS011;37534;39.772;2.718;2023-01-09T06:10:54;5.57;;;2.83;;
51459;SDS011;37534;39.772;2.718;2023-01-09T06:13:19;17.80;;;3.75;;
51459;SDS011;37534;39.772;2.718;2023-01-09T06:15:46;10.68;;;2.80;;
51459;SDS011;37534;39.772;2.718;2023-01-09T06:18:12;16.17;;;3.67;;
51459;SDS011;37534;39.772;2.718;2023-01-09T06:20:38;10.18;;;3.60;;
51459;SDS011;37534;39.772;2.718;2023-01-09T06:23:03;10.48;;;3.05;;
51459;SDS011;37534;39.772;2.718;2023-01-09T06:25:29;11.98;;;3.13;;
51459;SDS011;37534;39.772;2.718;2023-01-09T06:27:54;12.52;;;3.83;;
51459;SDS011;37534;39.772;2.718;2023-01-09T06:30:20;14.15;;;3.70;;
51459;SDS011;37534;39.772;2.718;2023-01-09T06:32:46;15.50;;;4.10;;
51459;SDS011;37534;39.772;2.718;2023-01-09T06:35:13;13.23;;;4.05;;
51459;SDS011;37534;39.772;2.718;2023-01-09T06:37:39;10.48;;;3.25;;
51459;SDS011;37534;39.772;2.718;2023-01-09T06:40:05;13.20;;;3.80;;
51459;SDS011;37534;39.772;2.718;2023-01-09T06:42:31;8.75;;;3.45;;
51459;SDS011;37534;39.772;2.718;2023-01-09T06:44:56;8.40;;;3.75;;
51459;SDS011;37534;39.772;2.718;2023-01-09T06:47:22;12.55;;;5.85;;
51459;SDS011;37534;39.772;2.718;2023-01-09T06:49:47;18.65;;;5.90;;
51459;SDS011;37534;39.772;2.718;2023-01-09T06:52:13;7.93;;;3.65;;
51459;SDS011;37534;39.772;2.718;2023-01-09T06:54:38;10.88;;;4.65;;
51459;SDS011;37534;39.772;2.718;2023-01-09T06:57:04;15.57;;;6.30;;
51459;SDS011;37534;39.772;2.718;2023-01-09T06:59:30;13.02;;;5.03;;
51459;SDS011;37534;39.772;2.718;2023-01-09T07:01:55;12.40;;;5.32;;
51459;SDS011;37534;39.772;2.718;2023-01-09T07:04:21;11.98;;;3.97;;
51459;SDS011;37534;39.772;2.718;2023-01-09T07:06:47;22.73;;;5.78;;
51459;SDS011;37534;39.772;2.718;2023-01-09T07:09:13;9.95;;;4.82;;
51459;SDS011;37534;39.772;2.718;2023-01-09T07:11:39;20.23;;;6.55;;
51459;SDS011;37534;39.772;2.718;2023-01-09T07:14:05;12.40;;;4.55;;
51459;SDS011;37534;39.772;2.718;2023-01-09T07:16:31;13.70;;;4.13;;
51459;SDS011;37534;39.772;2.718;2023-01-09T07:18:57;19.17;;;4.40;;
51459;SDS011;37534;39.772;2.718;2023-01-09T07:21:23;18.95;;;5.47;;
51459;SDS011;37534;39.772;2.718;2023-01-09T07:23:49;19.52;;;5.05;;
51459;SDS011;37534;39.772;2.718;2023-01-09T07:26:15;20.20;;;4.57;;
51459;SDS011;37534;39.772;2.718;2023-01-09T07:28:40;8.82;;;3.58;;
51459;SDS011;37534;39.772;2.718;2023-01-09T07:31:06;13.43;;;4.00;;
51459;SDS011;37534;39.772;2.718;2023-01-09T07:33:32;27.85;;;5.53;;
51459;SDS011;37534;39.772;2.718;2023-01-09T07:35:58;18.58;;;4.85;;
51459;SDS011;37534;39.772;2.718;2023-01-09T07:38:24;22.58;;;4.65;;
51459;SDS011;37534;39.772;2.718;2023-01-09T07:40:50;16.77;;;4.43;;
51459;SDS011;37534;39.772;2.718;2023-01-09T07:43:15;16.17;;;5.13;;
51459;SDS011;37534;39.772;2.718;2023-01-09T07:45:41;19.10;;;6.40;;
51459;SDS011;37534;39.772;2.718;2023-01-09T07:48:07;9.30;;;5.07;;
51459;SDS011;37534;39.772;2.718;2023-01-09T07:50:32;16.48;;;6.25;;
51459;SDS011;37534;39.772;2.718;2023-01-09T07:52:58;14.95;;;5.13;;
51459;SDS011;37534;39.772;2.718;2023-01-09T07:55:24;17.85;;;4.72;;
51459;SDS011;37534;39.772;2.718;2023-01-09T07:57:49;21.45;;;7.32;;
51459;SDS011;37534;39.772;2.718;2023-01-09T08:00:16;26.88;;;9.35;;
51459;SDS011;37534;39.772;2.718;2023-01-09T08:02:42;20.05;;;11.55;;
51459;SDS011;37534;39.772;2.718;2023-01-09T08:05:08;19.42;;;5.90;;
51459;SDS011;37534;39.772;2.718;2023-01-09T08:07:38;23.17;;;8.23;;
51459;SDS011;37534;39.772;2.718;2023-01-09T08:10:05;34.45;;;8.07;;
51459;SDS011;37534;39.772;2.718;2023-01-09T08:12:31;10.98;;;5.68;;
51459;SDS011;37534;39.772;2.718;2023-01-09T08:14:56;25.15;;;13.82;;
51459;SDS011;37534;39.772;2.718;2023-01-09T08:17:23;21.17;;;10.90;;
51459;SDS011;37534;39.772;2.718;2023-01-09T08:19:49;24.88;;;12.63;;
51459;SDS011;37534;39.772;2.718;2023-01-09T08:22:14;11.88;;;6.82;;
51459;SDS011;37534;39.772;2.718;2023-01-09T08:24:40;17.20;;;5.38;;
51459;SDS011;37534;39.772;2.718;2023-01-09T08:27:05;11.38;;;6.03;;
51459;SDS011;37534;39.772;2.718;2023-01-09T08:29:31;19.40;;;6.03;;
51459;SDS011;37534;39.772;2.718;2023-01-09T08:31:57;20.92;;;6.88;;
51459;SDS011;37534;39.772;2.718;2023-01-09T08:34:22;21.13;;;7.45;;
51459;SDS011;37534;39.772;2.718;2023-01-09T08:36:48;15.55;;;9.07;;
51459;SDS011;37534;39.772;2.718;2023-01-09T08:39:13;27.38;;;7.88;;
51459;SDS011;37534;39.772;2.718;2023-01-09T08:41:39;22.77;;;9.13;;
51459;SDS011;37534;39.772;2.718;2023-01-09T08:44:23;16.65;;;6.75;;
51459;SDS011;37534;39.772;2.718;2023-01-09T08:47:07;17.05;;;11.98;;
51459;SDS011;37534;39.772;2.718;2023-01-09T08:49:33;18.27;;;10.55;;
51459;SDS011;37534;39.772;2.718;2023-01-09T08:52:01;31.95;;;20.77;;
51459;SDS011;37534;39.772;2.718;2023-01-09T08:54:27;26.77;;;16.48;;
51459;SDS011;37534;39.772;2.718;2023-01-09T08:56:52;49.40;;;35.97;;
51459;SDS011;37534;39.772;2.718;2023-01-09T08:59:18;49.25;;;33.80;;
51459;SDS011;37534;39.772;2.718;2023-01-09T09:01:45;26.98;;;19.77;;
51459;SDS011;37534;39.772;2.718;2023-01-09T09:04:10;25.23;;;16.17;;
51459;SDS011;37534;39.772;2.718;2023-01-09T09:06:36;21.00;;;14.10;;
51459;SDS011;37534;39.772;2.718;2023-01-09T09:09:01;19.80;;;11.55;;
51459;SDS011;37534;39.772;2.718;2023-01-09T09:11:34;17.00;;;10.40;;
51459;SDS011;37534;39.772;2.718;2023-01-09T09:14:00;22.95;;;9.52;;
51459;SDS011;37534;39.772;2.718;2023-01-09T09:16:46;13.00;;;8.70;;
51459;SDS011;37534;39.772;2.718;2023-01-09T09:19:11;17.50;;;8.68;;
51459;SDS011;37534;39.772;2.718;2023-01-09T09:21:37;20.08;;;9.10;;
51459;SDS011;37534;39.772;2.718;2023-01-09T09:24:03;30.45;;;12.55;;
51459;SDS011;37534;39.772;2.718;2023-01-09T09:26:28;18.40;;;10.05;;
51459;SDS011;37534;39.772;2.718;2023-01-09T09:28:54;15.32;;;12.07;;
51459;SDS011;37534;39.772;2.718;2023-01-09T09:31:19;24.38;;;14.77;;
51459;SDS011;37534;39.772;2.718;2023-01-09T09:33:45;22.02;;;13.77;;
51459;SDS011;37534;39.772;2.718;2023-01-09T09:36:10;33.63;;;15.38;;
51459;SDS011;37534;39.772;2.718;2023-01-09T09:38:36;21.95;;;10.13;;
51459;SDS011;37534;39.772;2.718;2023-01-09T09:47:03;34.30;;;20.60;;
51459;SDS011;37534;39.772;2.718;2023-01-09T09:49:51;12.27;;;7.40;;
51459;SDS011;37534;39.772;2.718;2023-01-09T09:52:34;45.10;;;16.38;;
51459;SDS011;37534;39.772;2.718;2023-01-09T09:55:16;11.30;;;5.82;;
51459;SDS011;37534;39.772;2.718;2023-01-09T09:57:45;15.82;;;4.18;;
51459;SDS011;37534;39.772;2.718;2023-01-09T10:00:16;5.05;;;3.10;;
51459;SDS011;37534;39.772;2.718;2023-01-09T10:05:54;12.82;;;5.75;;
51459;SDS011;37534;39.772;2.718;2023-01-09T10:11:21;11.80;;;3.90;;
51459;SDS011;37534;39.772;2.718;2023-01-09T10:13:53;18.67;;;11.15;;
51459;SDS011;37534;39.772;2.718;2023-01-09T10:22:31;2.78;;;1.95;;
51459;SDS011;37534;39.772;2.718;2023-01-09T10:28:09;6.30;;;3.38;;
51459;SDS011;37534;39.772;2.718;2023-01-09T10:30:50;3.03;;;2.03;;
51459;SDS011;37534;39.772;2.718;2023-01-09T10:39:35;5.57;;;2.17;;
51459;SDS011;37534;39.772;2.718;2023-01-09T10:49:58;7.35;;;2.35;;
51459;SDS011;37534;39.772;2.718;2023-01-09T10:52:38;4.25;;;1.35;;
51459;SDS011;37534;39.772;2.718;2023-01-09T10:55:21;4.10;;;2.17;;
51459;SDS011;37534;39.772;2.718;2023-01-09T10:58:14;6.38;;;2.08;;
51459;SDS011;37534;39.772;2.718;2023-01-09T11:00:42;4.88;;;1.33;;
51459;SDS011;37534;39.772;2.718;2023-01-09T11:03:11;3.42;;;1.23;;
51459;SDS011;37534;39.772;2.718;2023-01-09T11:05:38;5.05;;;1.95;;
51459;SDS011;37534;39.772;2.718;2023-01-09T11:10:46;6.47;;;1.73;;
51459;SDS011;37534;39.772;2.718;2023-01-09T11:13:31;2.88;;;2.03;;
51459;SDS011;37534;39.772;2.718;2023-01-09T11:15:59;6.85;;;2.45;;
51459;SDS011;37534;39.772;2.718;2023-01-09T11:18:25;3.42;;;1.83;;
51459;SDS011;37534;39.772;2.718;2023-01-09T11:20:51;6.47;;;2.40;;
51459;SDS011;37534;39.772;2.718;2023-01-09T11:23:28;14.23;;;1.77;;
51459;SDS011;37534;39.772;2.718;2023-01-09T11:25:57;9.05;;;2.03;;
51459;SDS011;37534;39.772;2.718;2023-01-09T11:28:25;8.35;;;2.88;;
51459;SDS011;37534;39.772;2.718;2023-01-09T11:33:22;5.07;;;2.67;;
51459;SDS011;37534;39.772;2.718;2023-01-09T11:38:23;5.57;;;3.03;;
51459;SDS011;37534;39.772;2.718;2023-01-09T11:40:53;15.93;;;3.22;;
51459;SDS011;37534;39.772;2.718;2023-01-09T11:43:32;6.95;;;2.67;;
51459;SDS011;37534;39.772;2.718;2023-01-09T11:46:06;4.88;;;2.25;;
51459;SDS011;37534;39.772;2.718;2023-01-09T11:48:35;3.67;;;1.90;;
51459;SDS011;37534;39.772;2.718;2023-01-09T11:51:02;32.80;;;17.13;;
51459;SDS011;37534;39.772;2.718;2023-01-09T11:53:51;5.38;;;2.38;;
51459;SDS011;37534;39.772;2.718;2023-01-09T11:56:18;8.80;;;2.35;;
51459;SDS011;37534;39.772;2.718;2023-01-09T11:58:44;10.55;;;3.42;;
51459;SDS011;37534;39.772;2.718;2023-01-09T12:09:01;6.50;;;3.85;;
51459;SDS011;37534;39.772;2.718;2023-01-09T12:11:39;7.15;;;2.30;;
51459;SDS011;37534;39.772;2.718;2023-01-09T12:17:04;6.68;;;1.92;;
51459;SDS011;37534;39.772;2.718;2023-01-09T12:19:51;8.98;;;2.13;;
51459;SDS011;37534;39.772;2.718;2023-01-09T12:27:35;8.15;;;3.72;;
51459;SDS011;37534;39.772;2.718;2023-01-09T12:33:08;19.33;;;12.20;;
51459;SDS011;37534;39.772;2.718;2023-01-09T12:38:13;6.85;;;2.88;;
51459;SDS011;37534;39.772;2.718;2023-01-09T12:41:05;4.75;;;2.78;;
51459;SDS011;37534;39.772;2.718;2023-01-09T12:46:20;8.98;;;2.22;;
51459;SDS011;37534;39.772;2.718;2023-01-09T12:51:24;6.20;;;1.88;;
51459;SDS011;37534;39.772;2.718;2023-01-09T12:54:11;3.43;;;2.07;;
51459;SDS011;37534;39.772;2.718;2023-01-09T12:56:47;7.45;;;2.28;;
51459;SDS011;37534;39.772;2.718;2023-01-09T13:02:43;6.43;;;2.35;;
51459;SDS011;37534;39.772;2.718;2023-01-09T13:05:52;4.47;;;2.15;;
51459;SDS011;37534;39.772;2.718;2023-01-09T13:07:59;2.17;;;1.48;;
51459;SDS011;37534;39.772;2.718;2023-01-09T13:10:38;4.55;;;1.90;;
51459;SDS011;37534;39.772;2.718;2023-01-09T13:13:28;3.10;;;1.75;;
51459;SDS011;37534;39.772;2.718;2023-01-09T13:16:04;5.82;;;1.50;;
51459;SDS011;37534;39.772;2.718;2023-01-09T13:18:37;8.13;;;1.80;;
51459;SDS011;37534;39.772;2.718;2023-01-09T13:21:08;4.93;;;1.85;;
51459;SDS011;37534;39.772;2.718;2023-01-09T13:28:54;9.10;;;2.85;;
51459;SDS011;37534;39.772;2.718;2023-01-09T13:34:21;3.45;;;2.47;;
51459;SDS011;37534;39.772;2.718;2023-01-09T13:36:50;4.80;;;2.40;;
51459;SDS011;37534;39.772;2.718;2023-01-09T13:39:19;5.43;;;2.20;;
51459;SDS011;37534;39.772;2.718;2023-01-09T13:42:02;10.38;;;2.30;;
51459;SDS011;37534;39.772;2.718;2023-01-09T13:44:48;5.30;;;2.30;;
51459;SDS011;37534;39.772;2.718;2023-01-09T13:47:18;16.35;;;2.97;;
51459;SDS011;37534;39.772;2.718;2023-01-09T13:57:23;7.72;;;2.67;;
51459;SDS011;37534;39.772;2.718;2023-01-09T14:05:12;3.20;;;2.35;;
51459;SDS011;37534;39.772;2.718;2023-01-09T14:07:43;13.43;;;2.40;;
51459;SDS011;37534;39.772;2.718;2023-01-09T14:10:26;22.60;;;2.15;;
51459;SDS011;37534;39.772;2.718;2023-01-09T14:12:55;3.40;;;1.77;;
51459;SDS011;37534;39.772;2.718;2023-01-09T14:17:57;6.47;;;1.92;;
51459;SDS011;37534;39.772;2.718;2023-01-09T14:20:27;9.10;;;1.83;;
51459;SDS011;37534;39.772;2.718;2023-01-09T14:22:58;13.68;;;5.80;;
51459;SDS011;37534;39.772;2.718;2023-01-09T14:25:25;4.97;;;2.67;;
51459;SDS011;37534;39.772;2.718;2023-01-09T14:35:25;10.77;;;2.63;;
51459;SDS011;37534;39.772;2.718;2023-01-09T14:38:04;6.80;;;2.53;;
51459;SDS011;37534;39.772;2.718;2023-01-09T14:40:38;9.00;;;2.28;;
51459;SDS011;37534;39.772;2.718;2023-01-09T14:43:13;5.80;;;2.35;;
51459;SDS011;37534;39.772;2.718;2023-01-09T14:45:47;4.30;;;2.22;;
51459;SDS011;37534;39.772;2.718;2023-01-09T14:48:13;4.97;;;2.25;;
51459;SDS011;37534;39.772;2.718;2023-01-09T14:50:46;4.50;;;2.13;;
51459;SDS011;37534;39.772;2.718;2023-01-09T14:53:25;8.25;;;2.85;;
51459;SDS011;37534;39.772;2.718;2023-01-09T14:55:53;10.30;;;4.57;;
51459;SDS011;37534;39.772;2.718;2023-01-09T15:00:56;12.57;;;3.67;;
51459;SDS011;37534;39.772;2.718;2023-01-09T15:03:23;6.70;;;2.35;;
51459;SDS011;37534;39.772;2.718;2023-01-09T15:05:52;17.20;;;3.45;;
51459;SDS011;37534;39.772;2.718;2023-01-09T15:08:20;5.93;;;2.20;;
51459;SDS011;37534;39.772;2.718;2023-01-09T15:10:49;9.35;;;3.15;;
51459;SDS011;37534;39.772;2.718;2023-01-09T15:13:19;6.97;;;2.28;;
51459;SDS011;37534;39.772;2.718;2023-01-09T15:15:56;5.20;;;2.65;;
51459;SDS011;37534;39.772;2.718;2023-01-09T15:18:23;7.15;;;2.80;;
51459;SDS011;37534;39.772;2.718;2023-01-09T15:20:53;6.18;;;2.08;;
51459;SDS011;37534;39.772;2.718;2023-01-09T15:23:23;19.20;;;2.65;;
51459;SDS011;37534;39.772;2.718;2023-01-09T15:25:52;8.57;;;3.47;;
51459;SDS011;37534;39.772;2.718;2023-01-09T15:28:30;7.10;;;3.78;;
51459;SDS011;37534;39.772;2.718;2023-01-09T15:30:58;11.25;;;6.05;;
51459;SDS011;37534;39.772;2.718;2023-01-09T15:33:30;16.17;;;10.75;;
51459;SDS011;37534;39.772;2.718;2023-01-09T15:35:56;20.73;;;13.27;;
51459;SDS011;37534;39.772;2.718;2023-01-09T15:38:27;16.45;;;5.13;;
51459;SDS011;37534;39.772;2.718;2023-01-09T15:41:03;18.35;;;9.15;;
51459;SDS011;37534;39.772;2.718;2023-01-09T15:43:33;13.85;;;5.65;;
51459;SDS011;37534;39.772;2.718;2023-01-09T15:46:02;8.40;;;4.07;;
51459;SDS011;37534;39.772;2.718;2023-01-09T15:48:29;8.98;;;2.90;;
51459;SDS011;37534;39.772;2.718;2023-01-09T15:50:58;3.45;;;2.20;;
51459;SDS011;37534;39.772;2.718;2023-01-09T15:53:25;3.75;;;2.15;;
51459;SDS011;37534;39.772;2.718;2023-01-09T15:58:37;2.45;;;1.63;;
51459;SDS011;37534;39.772;2.718;2023-01-09T16:04:08;3.65;;;2.70;;
51459;SDS011;37534;39.772;2.718;2023-01-09T16:06:49;14.32;;;4.85;;
51459;SDS011;37534;39.772;2.718;2023-01-09T16:09:26;6.72;;;5.38;;
51459;SDS011;37534;39.772;2.718;2023-01-09T16:11:57;10.57;;;7.45;;
51459;SDS011;37534;39.772;2.718;2023-01-09T16:14:28;9.80;;;7.13;;
51459;SDS011;37534;39.772;2.718;2023-01-09T16:17:02;21.63;;;6.45;;
51459;SDS011;37534;39.772;2.718;2023-01-09T16:19:39;11.00;;;5.70;;
51459;SDS011;37534;39.772;2.718;2023-01-09T16:22:28;6.63;;;4.28;;
51459;SDS011;37534;39.772;2.718;2023-01-09T16:25:00;5.32;;;3.25;;
51459;SDS011;37534;39.772;2.718;2023-01-09T16:27:47;5.47;;;3.78;;
51459;SDS011;37534;39.772;2.718;2023-01-09T16:33:56;3.47;;;2.35;;
51459;SDS011;37534;39.772;2.718;2023-01-09T16:36:30;8.18;;;2.13;;
51459;SDS011;37534;39.772;2.718;2023-01-09T16:39:17;2.63;;;2.05;;
51459;SDS011;37534;39.772;2.718;2023-01-09T16:41:42;5.40;;;2.13;;
51459;SDS011;37534;39.772;2.718;2023-01-09T16:44:26;3.05;;;1.52;;
51459;SDS011;37534;39.772;2.718;2023-01-09T16:46:52;6.50;;;2.28;;
51459;SDS011;37534;39.772;2.718;2023-01-09T16:49:25;2.30;;;2.05;;
51459;SDS011;37534;39.772;2.718;2023-01-09T16:51:52;3.53;;;2.28;;
51459;SDS011;37534;39.772;2.718;2023-01-09T16:54:18;2.30;;;1.95;;
51459;SDS011;37534;39.772;2.718;2023-01-09T16:56:48;3.60;;;1.88;;
51459;SDS011;37534;39.772;2.718;2023-01-09T16:59:18;2.65;;;1.80;;
51459;SDS011;37534;39.772;2.718;2023-01-09T17:01:49;2.25;;;2.05;;
51459;SDS011;37534;39.772;2.718;2023-01-09T17:04:16;6.28;;;3.42;;
51459;SDS011;37534;39.772;2.718;2023-01-09T17:06:43;4.75;;;3.30;;
51459;SDS011;37534;39.772;2.718;2023-01-09T17:09:12;8.93;;;4.10;;
51459;SDS011;37534;39.772;2.718;2023-01-09T17:11:40;4.95;;;3.10;;
51459;SDS011;37534;39.772;2.718;2023-01-09T17:14:06;7.90;;;4.13;;